createdAt,value
2023-01-30T00:12:11.256Z,0.52
2023-01-30T00:28:11.073Z,0.53
2023-01-30T00:29:11.116Z,0.52
2023-01-30T00:30:11.141Z,0.51
2023-01-30T00:31:11.229Z,0.52
2023-01-30T00:32:11.198Z,0.53
2023-01-30T00:33:11.229Z,0.51
2023-01-30T00:34:11.271Z,0.52
2023-01-30T00:35:11.302Z,0.52
2023-01-30T00:36:11.331Z,0.52
2023-01-30T00:37:11.375Z,0.52
2023-01-30T00:38:11.405Z,0.52
2023-01-30T00:39:11.450Z,0.52
2023-01-30T00:40:11.491Z,0.52
2023-01-30T00:41:11.518Z,0.53
2023-01-30T00:42:11.546Z,0.52
2023-01-30T00:44:11.605Z,0.52
2023-01-30T00:45:11.650Z,0.52
2023-01-30T00:46:11.705Z,0.52
2023-01-30T00:47:11.715Z,0.52
2023-01-30T00:48:11.737Z,0.52
2023-01-30T00:55:11.973Z,0.52
2023-01-30T00:59:12.095Z,0.53
2023-01-30T08:41:21.441Z,1.27
2023-01-30T08:58:21.460Z,1.13
2023-01-30T09:22:21.057Z,0.79
2023-01-30T09:23:21.082Z,0.73
2023-01-30T09:25:21.060Z,0.67
2023-01-30T09:26:21.136Z,0.73
2023-01-30T09:27:21.127Z,0.78
2023-01-30T09:28:21.161Z,0.59
2023-01-30T09:29:21.204Z,0.50
2023-01-30T09:30:21.616Z,0.50
2023-01-30T09:31:21.380Z,0.57
2023-01-30T09:32:21.359Z,0.65
2023-01-30T09:33:21.425Z,0.72
2023-01-30T09:34:21.549Z,0.77
2023-01-30T09:35:21.548Z,0.79
2023-01-30T09:36:21.595Z,0.82
2023-01-30T09:37:21.639Z,0.84
2023-01-30T09:38:21.677Z,0.86
2023-01-30T09:39:21.688Z,0.88
2023-01-30T09:40:21.713Z,0.86
2023-01-30T09:41:21.714Z,0.87
2023-01-30T09:42:21.727Z,0.89
2023-01-30T09:43:21.731Z,0.90
2023-01-30T09:44:21.708Z,0.91
2023-01-30T09:45:21.693Z,0.97
2023-01-30T09:46:21.711Z,0.99
2023-01-30T09:47:21.693Z,1.03
2023-01-30T09:48:21.670Z,1.04
2023-01-30T09:49:21.665Z,1.07
2023-01-30T09:50:21.840Z,1.11
2023-01-30T09:51:21.649Z,1.16
2023-01-30T09:52:21.630Z,1.20
2023-01-30T09:53:21.618Z,1.21
2023-01-30T09:54:21.638Z,1.23
2023-01-30T09:55:21.656Z,1.26
2023-01-30T09:56:22.461Z,1.26
2023-01-30T09:57:22.554Z,1.31
2023-01-30T09:58:21.742Z,1.32
2023-01-30T09:59:21.812Z,1.41
2023-01-30T10:00:21.859Z,1.45
2023-01-30T10:01:21.879Z,1.53
2023-01-30T10:02:21.908Z,1.55
2023-01-30T10:03:22.016Z,1.50
2023-01-30T10:04:22.016Z,1.55
2023-01-30T10:05:22.012Z,1.60
2023-01-30T10:06:22.055Z,1.59
2023-01-30T10:07:22.120Z,1.66
2023-01-30T10:08:22.125Z,1.68
2023-01-30T10:09:23.605Z,1.68
2023-01-30T10:10:22.218Z,1.73
2023-01-30T10:11:22.285Z,1.79
2023-01-30T10:12:22.369Z,1.81
2023-01-30T10:13:22.366Z,1.77
2023-01-30T10:14:22.410Z,1.82
2023-01-30T10:15:22.563Z,1.81
2023-01-30T10:16:22.581Z,1.82
2023-01-30T10:17:22.562Z,1.91
2023-01-30T10:18:22.608Z,1.93
2023-01-30T10:19:34.637Z,2.01
2023-01-30T10:20:23.993Z,2.01
2023-01-30T10:21:22.598Z,2.02
2023-01-30T10:22:22.588Z,2.02
2023-01-30T10:23:22.596Z,2.02
2023-01-30T10:24:22.569Z,2.09
2023-01-30T10:25:22.547Z,2.19
2023-01-30T10:26:22.664Z,2.17
2023-01-30T10:27:23.520Z,2.22
2023-01-30T10:28:22.525Z,2.12
2023-01-30T10:29:22.521Z,2.15
2023-01-30T10:30:22.567Z,2.28
2023-01-30T10:31:22.553Z,2.34
2023-01-30T10:32:22.504Z,2.28
2023-01-30T10:33:23.484Z,2.30
2023-01-30T10:34:22.574Z,2.28
2023-01-30T10:35:22.599Z,2.34
2023-01-30T10:36:22.630Z,2.25
2023-01-30T10:37:22.666Z,2.36
2023-01-30T10:46:22.853Z,2.53
2023-01-30T10:47:23.130Z,2.51
2023-01-30T10:49:22.846Z,2.52
2023-01-30T10:50:22.957Z,2.54
2023-01-30T10:51:22.865Z,2.55
2023-01-30T10:52:22.866Z,2.64
2023-01-30T10:53:22.879Z,2.61
2023-01-30T10:54:22.870Z,2.55
2023-01-30T10:55:36.330Z,2.54
2023-01-30T10:57:22.846Z,2.55
2023-01-30T10:58:22.829Z,2.58
2023-01-30T10:59:22.827Z,2.58
2023-01-30T11:00:22.787Z,2.54
2023-01-30T11:01:22.856Z,2.63
2023-01-30T11:04:22.784Z,2.70
2023-01-30T11:05:22.689Z,2.66
2023-01-30T11:06:22.661Z,2.74
2023-01-30T11:07:22.643Z,2.79
2023-01-30T11:08:22.623Z,2.77
2023-01-30T11:09:24.557Z,2.80
2023-01-30T11:10:22.609Z,2.79
2023-01-30T11:11:22.600Z,2.80
2023-01-30T11:12:22.551Z,2.89
2023-01-30T11:13:22.547Z,2.74
2023-01-30T11:14:22.517Z,2.76
2023-01-30T11:15:23.430Z,2.70
2023-01-30T11:16:22.543Z,2.77
2023-01-30T11:17:22.458Z,2.78
2023-01-30T11:19:08.181Z,2.85
2023-01-30T11:19:23.525Z,2.86
2023-01-30T11:20:23.083Z,2.86
2023-01-30T11:21:24.964Z,2.87
2023-01-30T11:22:22.419Z,2.86
2023-01-30T11:23:22.390Z,2.86
2023-01-30T11:24:22.385Z,2.89
2023-01-30T11:25:22.350Z,2.95
2023-01-30T11:26:22.369Z,2.93
2023-01-30T11:27:22.314Z,3.11
2023-01-30T11:28:22.285Z,3.04
2023-01-30T11:29:22.274Z,3.06
2023-01-30T11:30:22.570Z,3.18
2023-01-30T11:31:38.815Z,3.15
2023-01-30T11:32:23.264Z,3.16
2023-01-30T11:33:22.183Z,3.16
2023-01-30T11:34:22.153Z,3.15
2023-01-30T11:35:22.147Z,3.23
2023-01-30T11:36:22.209Z,3.35
2023-01-30T11:37:22.099Z,3.32
2023-01-30T11:38:22.150Z,3.37
2023-01-30T11:39:22.071Z,3.44
2023-01-30T11:40:22.409Z,3.38
2023-01-30T11:41:22.051Z,3.37
2023-01-30T11:42:22.016Z,3.45
2023-01-30T11:43:21.989Z,3.40
2023-01-30T11:44:22.513Z,3.51
2023-01-30T11:45:21.957Z,3.53
2023-01-30T11:46:21.939Z,3.57
2023-01-30T11:47:21.978Z,3.71
2023-01-30T11:48:33.816Z,3.62
2023-01-30T11:49:45.069Z,3.63
2023-01-30T11:50:29.715Z,3.63
2023-01-30T11:51:22.805Z,3.64
2023-01-30T11:52:21.751Z,3.70
2023-01-30T11:53:21.726Z,3.77
2023-01-30T11:54:21.696Z,3.92
2023-01-30T11:55:22.024Z,4.09
2023-01-30T11:56:21.630Z,4.26
2023-01-30T11:57:21.673Z,4.02
2023-01-30T11:58:21.555Z,4.04
2023-01-30T11:59:21.524Z,4.08
2023-01-30T12:00:21.837Z,3.81
2023-01-30T12:01:21.451Z,3.82
2023-01-30T12:02:21.441Z,3.56
2023-01-30T12:03:23.380Z,3.66
2023-01-30T12:04:21.355Z,3.32
2023-01-30T12:05:21.315Z,3.46
2023-01-30T12:06:21.293Z,3.43
2023-01-30T12:07:21.259Z,3.33
2023-01-30T12:08:31.197Z,3.32
2023-01-30T12:09:22.322Z,3.32
2023-01-30T12:10:21.234Z,3.32
2023-01-30T12:11:21.209Z,3.24
2023-01-30T12:12:21.210Z,3.12
2023-01-30T12:13:21.167Z,3.09
2023-01-30T12:14:21.153Z,3.00
2023-01-30T12:15:21.171Z,3.00
2023-01-30T12:16:21.169Z,2.94
2023-01-30T12:17:21.084Z,2.85
2023-01-30T12:18:21.084Z,2.77
2023-01-30T12:19:21.143Z,2.80
2023-01-30T12:20:21.438Z,2.76
2023-01-30T12:21:21.204Z,2.71
2023-01-30T12:22:21.247Z,2.64
2023-01-30T12:23:21.278Z,2.60
2023-01-30T12:24:21.305Z,2.63
2023-01-30T12:25:21.340Z,2.49
2023-01-30T12:26:21.425Z,2.46
2023-01-30T12:27:21.366Z,2.45
2023-01-30T12:28:21.399Z,2.40
2023-01-30T12:29:21.428Z,2.40
2023-01-30T12:30:21.466Z,2.36
2023-01-30T12:31:21.471Z,2.34
2023-01-30T12:32:21.476Z,2.26
2023-01-30T12:33:21.447Z,2.24
2023-01-30T12:34:24.358Z,2.25
2023-01-30T12:35:22.433Z,2.25
2023-01-30T12:41:21.541Z,2.03
2023-01-30T12:52:22.034Z,1.12
2023-01-30T13:19:23.051Z,0.84
2023-01-30T13:20:21.476Z,0.84
2023-01-30T13:31:22.149Z,0.78
2023-01-30T14:01:21.564Z,0.67
2023-01-30T14:25:21.707Z,0.60
2023-01-30T14:27:21.465Z,0.61
2023-01-30T14:28:21.507Z,0.60
2023-01-30T14:29:21.544Z,0.59
2023-01-30T14:30:21.569Z,0.60
2023-01-30T14:31:21.705Z,0.59
2023-01-30T14:32:21.671Z,0.60
2023-01-30T14:33:21.696Z,0.60
2023-01-30T14:34:21.684Z,0.59
2023-01-30T14:35:21.716Z,0.59
2023-01-30T14:36:21.733Z,0.59
2023-01-30T14:37:21.792Z,0.56
2023-01-30T14:38:21.810Z,0.58
2023-01-30T14:39:21.829Z,0.57
2023-01-30T14:40:22.097Z,0.58
2023-01-30T14:41:21.915Z,0.58
2023-01-30T14:42:21.947Z,0.57
2023-01-30T14:43:21.979Z,0.57
2023-01-30T14:44:22.016Z,0.57
2023-01-30T14:45:22.074Z,0.56
2023-01-30T14:46:22.126Z,0.56
2023-01-30T14:47:33.989Z,0.57
2023-01-30T14:49:22.114Z,0.57
2023-01-30T14:50:22.104Z,0.57
2023-01-30T14:51:22.125Z,0.57
2023-01-30T14:52:22.079Z,0.56
2023-01-30T14:53:22.083Z,0.56
2023-01-30T14:54:25.484Z,0.56
2023-01-30T14:59:22.007Z,0.56
2023-01-30T15:06:21.985Z,0.55
2023-01-30T15:15:22.435Z,0.54
2023-01-30T15:16:22.551Z,0.54
2023-01-30T15:17:22.562Z,0.53
2023-01-30T15:18:22.601Z,0.53
2023-01-30T15:19:22.673Z,0.53
2023-01-30T15:20:22.708Z,0.53
2023-01-30T15:21:22.762Z,0.53
2023-01-30T15:22:22.815Z,0.53
2023-01-30T15:23:22.873Z,0.52
2023-01-30T15:24:22.934Z,0.52
2023-01-30T15:25:22.983Z,0.52
2023-01-30T15:26:23.104Z,0.52
2023-01-30T15:27:23.105Z,0.52
2023-01-30T15:28:23.156Z,0.52
2023-01-30T15:29:23.206Z,0.51
2023-01-30T15:30:23.332Z,0.52
2023-01-30T15:31:23.410Z,0.52
2023-01-30T15:32:23.396Z,0.52
2023-01-30T15:33:31.057Z,0.52
2023-01-30T15:34:24.480Z,0.52
2023-01-30T15:35:23.425Z,0.52
2023-01-30T15:36:23.436Z,0.52
2023-01-30T15:37:23.413Z,0.52
2023-01-30T15:38:23.403Z,0.51
2023-01-30T15:39:23.488Z,0.51
2023-01-30T15:40:23.417Z,0.51
2023-01-30T15:41:23.374Z,0.52
2023-01-30T15:42:23.360Z,0.51
2023-01-30T15:43:23.416Z,0.51
2023-01-30T15:44:23.475Z,0.51
2023-01-30T15:45:23.525Z,0.51
2023-01-30T15:46:23.637Z,0.51
2023-01-30T15:47:23.624Z,0.50
2023-01-30T15:48:23.683Z,0.50
2023-01-30T15:49:23.704Z,0.50
2023-01-30T15:50:23.750Z,0.51
2023-01-30T15:51:23.791Z,0.51
2023-01-30T15:52:23.817Z,0.51
2023-01-30T15:53:23.880Z,0.51
2023-01-30T15:54:23.945Z,0.51
2023-01-30T15:55:24.004Z,0.50
2023-01-30T15:56:24.059Z,0.50
2023-01-30T15:57:24.110Z,0.50
2023-01-30T15:58:24.185Z,0.50
2023-01-30T15:59:24.225Z,0.50
2023-01-30T16:00:25.108Z,0.50
2023-01-30T16:01:24.328Z,0.51
2023-01-30T16:02:24.453Z,0.50
2023-01-30T16:03:24.384Z,0.52
2023-01-30T16:04:24.388Z,0.50
2023-01-30T16:05:25.471Z,0.50
2023-01-30T16:06:24.458Z,0.51
2023-01-30T16:07:24.482Z,0.51
2023-01-30T16:08:24.521Z,0.51
2023-01-30T16:09:24.573Z,0.51
2023-01-30T16:10:25.039Z,0.51
2023-01-30T16:11:24.633Z,0.51
2023-01-30T16:12:24.687Z,0.51
2023-01-30T16:13:24.718Z,0.50
2023-01-30T16:14:24.754Z,0.50
2023-01-30T16:15:24.796Z,0.51
2023-01-30T16:16:24.842Z,0.51
2023-01-30T23:04:31.771Z,0.51
2023-01-30T23:25:31.462Z,0.52
2023-01-30T23:26:31.522Z,0.52
2023-01-30T23:27:31.493Z,0.52
2023-01-30T23:28:31.524Z,0.53
2023-01-30T23:29:31.558Z,0.51
2023-01-30T23:30:31.600Z,0.51
2023-01-30T23:31:31.631Z,0.52
2023-01-30T23:32:31.598Z,0.51
2023-01-30T23:33:31.638Z,0.51
2023-01-30T23:34:31.639Z,0.51
2023-01-30T23:35:31.681Z,0.51
2023-01-30T23:36:31.687Z,0.51
2023-01-30T23:37:32.270Z,0.51
2023-01-30T23:38:31.716Z,0.51
2023-01-30T23:39:31.834Z,0.50
2023-01-30T23:40:31.757Z,0.51
2023-01-30T23:41:31.778Z,0.52
2023-01-30T23:42:31.813Z,0.51
2023-01-30T23:43:31.815Z,0.52
2023-01-30T23:44:31.842Z,0.51
2023-01-30T23:45:31.876Z,0.50
2023-01-30T23:46:31.921Z,0.51
2023-01-30T23:47:31.903Z,0.51
2023-01-30T23:48:31.936Z,0.51
2023-01-30T23:49:32.001Z,0.51
2023-01-30T23:50:31.961Z,0.51
2023-01-30T23:51:31.997Z,0.50
2023-01-30T23:52:32.009Z,0.50
2023-01-30T23:53:32.009Z,0.52
2023-01-30T23:54:32.029Z,0.53
2023-01-30T23:55:32.626Z,0.52
2023-01-30T23:56:32.084Z,0.51
2023-01-30T23:57:32.157Z,0.52
2023-01-30T23:58:32.098Z,0.51
2023-01-30T23:59:32.114Z,0.52
